createdAt,value
2023-02-22T00:00:42.002Z,30.77
2023-02-22T00:05:46.710Z,31.65
2023-02-22T00:10:48.584Z,28.98
2023-02-22T00:15:50.526Z,34.42
2023-02-22T00:20:54.220Z,36.65
2023-02-22T00:25:57.110Z,39.65
2023-02-22T00:30:58.881Z,36.55
2023-02-22T00:36:02.049Z,37.15
2023-02-22T00:41:04.060Z,38.83
2023-02-22T00:46:06.028Z,45.58
2023-02-22T00:51:09.369Z,36.60
2023-02-22T00:56:11.371Z,40.40
2023-02-22T01:01:13.201Z,41.85
2023-02-22T01:06:16.356Z,38.35
2023-02-22T01:11:18.704Z,36.15
2023-02-22T01:16:21.176Z,43.47
2023-02-22T01:21:24.360Z,36.67
2023-02-22T01:26:26.103Z,34.63
2023-02-22T01:31:27.895Z,41.03
2023-02-22T01:36:31.099Z,37.78
2023-02-22T01:41:33.114Z,41.95
2023-02-22T01:46:34.901Z,38.15
2023-02-22T01:51:40.491Z,41.00
2023-02-22T01:56:48.544Z,37.80
2023-02-22T02:01:50.442Z,34.83
2023-02-22T02:06:55.520Z,38.28
2023-02-22T02:11:59.010Z,39.65
2023-02-22T02:17:01.497Z,35.25
2023-02-22T02:22:34.020Z,30.50
2023-02-22T02:27:53.764Z,32.90
2023-02-22T02:33:01.734Z,35.38
2023-02-22T02:38:10.784Z,33.65
2023-02-22T02:43:17.618Z,36.30
2023-02-22T02:48:25.568Z,38.83
2023-02-22T02:53:32.986Z,34.22
2023-02-22T02:58:44.942Z,39.70
2023-02-22T03:04:13.109Z,43.95
2023-02-22T03:09:25.831Z,33.03
2023-02-22T03:14:35.396Z,38.17
2023-02-22T03:19:45.030Z,31.33
2023-02-22T03:24:52.830Z,38.58
2023-02-22T03:29:58.168Z,39.63
2023-02-22T03:35:06.283Z,35.17
2023-02-22T03:40:11.737Z,39.53
2023-02-22T03:45:15.433Z,32.97
2023-02-22T03:50:21.365Z,37.23
2023-02-22T03:55:23.186Z,40.75
2023-02-22T04:00:29.068Z,40.22
2023-02-22T04:05:32.272Z,41.15
2023-02-22T04:10:34.026Z,35.17
2023-02-22T04:15:35.702Z,41.13
2023-02-22T04:20:38.810Z,38.50
2023-02-22T04:25:40.674Z,38.30
2023-02-22T04:30:42.506Z,55.22
2023-02-22T04:35:48.554Z,69.68
2023-02-22T04:40:51.954Z,47.58
2023-02-22T04:45:53.667Z,44.92
2023-02-22T04:50:59.222Z,42.17
2023-02-22T04:56:01.033Z,39.20
2023-02-22T05:01:02.806Z,41.47
2023-02-22T05:06:06.680Z,41.67
2023-02-22T05:11:08.451Z,137.87
2023-02-22T05:16:10.340Z,69.45
2023-02-22T05:21:13.690Z,55.72
2023-02-22T05:26:15.418Z,44.42
2023-02-22T05:31:17.424Z,42.92
2023-02-22T05:36:20.655Z,30.95
2023-02-22T05:41:22.757Z,34.05
2023-02-22T05:46:24.520Z,35.25
2023-02-22T05:51:27.731Z,41.15
2023-02-22T05:56:30.158Z,34.67
2023-02-22T06:01:31.879Z,33.00
2023-02-22T06:06:34.938Z,31.87
2023-02-22T06:11:36.705Z,31.58
2023-02-22T06:16:38.477Z,39.25
2023-02-22T06:21:49.163Z,34.38
2023-02-22T06:26:55.454Z,38.58
2023-02-22T06:31:57.256Z,40.15
2023-02-22T06:37:00.559Z,35.55
2023-02-22T06:42:02.341Z,39.33
2023-02-22T06:47:04.272Z,46.85
2023-02-22T06:52:10.732Z,40.45
2023-02-22T06:57:12.639Z,50.53
2023-02-22T07:02:14.832Z,46.85
2023-02-22T07:07:18.274Z,45.05
2023-02-22T07:12:20.037Z,43.47
2023-02-22T07:17:21.733Z,45.40
2023-02-22T07:22:24.808Z,49.97
2023-02-22T07:27:26.550Z,57.50
2023-02-22T07:32:28.325Z,47.22
2023-02-22T07:37:31.440Z,48.72
2023-02-22T07:42:33.342Z,44.50
2023-02-22T07:47:35.057Z,44.22
2023-02-22T07:52:38.164Z,52.17
2023-02-22T07:57:39.840Z,52.67
2023-02-22T08:02:41.980Z,62.78
2023-02-22T08:07:45.138Z,75.90
2023-02-22T08:12:46.882Z,55.50
2023-02-22T08:17:48.579Z,54.38
2023-02-22T08:22:52.426Z,40.67
2023-02-22T08:27:57.641Z,52.50
2023-02-22T08:32:59.668Z,79.15
2023-02-22T08:38:04.658Z,115.37
2023-02-22T08:48:07.961Z,49.30
2023-02-22T08:53:12.903Z,37.13
2023-02-22T09:03:16.457Z,92.35
2023-02-22T09:08:19.701Z,40.95
2023-02-22T09:13:21.428Z,47.03
2023-02-22T09:18:23.706Z,99.57
2023-02-22T09:23:27.564Z,54.83
2023-02-22T09:28:29.385Z,85.47
2023-02-22T09:33:31.155Z,61.03
2023-02-22T09:38:34.328Z,48.40
2023-02-22T09:43:43.760Z,47.65
2023-02-22T09:48:57.423Z,51.80
2023-02-22T09:54:02.241Z,46.88
2023-02-22T09:59:07.910Z,43.15
2023-02-22T10:04:16.949Z,44.13
2023-02-22T10:09:27.431Z,45.22
2023-02-22T10:14:44.178Z,47.00
2023-02-22T10:19:56.486Z,44.85
2023-02-22T10:25:03.022Z,37.13
2023-02-22T10:30:24.145Z,40.83
2023-02-22T10:35:29.647Z,38.90
2023-02-22T10:40:32.919Z,38.53
2023-02-22T10:45:35.461Z,45.33
2023-02-22T10:50:39.958Z,40.10
2023-02-22T10:56:08.251Z,44.75
2023-02-22T11:01:21.936Z,46.03
2023-02-22T11:06:23.881Z,43.22
2023-02-22T11:11:27.104Z,39.70
2023-02-22T11:16:32.716Z,39.47
2023-02-22T11:21:37.415Z,45.95
2023-02-22T11:26:43.544Z,40.80
2023-02-22T11:31:46.943Z,37.17
2023-02-22T11:36:49.738Z,38.92
2023-02-22T11:41:58.828Z,34.63
2023-02-22T11:47:03.277Z,36.33
2023-02-22T11:52:23.295Z,35.20
2023-02-22T11:57:56.524Z,31.27
2023-02-22T12:03:40.516Z,31.50
2023-02-22T12:09:22.119Z,31.98
2023-02-22T12:19:48.927Z,34.65
2023-02-22T12:30:05.233Z,30.10
2023-02-22T12:35:40.199Z,37.45
2023-02-22T12:40:50.000Z,30.63
2023-02-22T12:46:00.330Z,32.00
2023-02-22T12:51:12.910Z,28.67
2023-02-22T12:56:22.229Z,27.52
2023-02-22T13:01:30.027Z,32.15
2023-02-22T13:06:41.377Z,33.42
2023-02-22T13:11:53.601Z,25.75
2023-02-22T13:17:03.813Z,29.25
2023-02-22T13:22:12.350Z,33.28
2023-02-22T13:27:19.246Z,32.65
2023-02-22T13:32:42.056Z,27.70
2023-02-22T13:38:00.170Z,29.40
2023-02-22T13:43:38.728Z,29.85
2023-02-22T13:49:00.394Z,31.08
2023-02-22T13:54:07.476Z,34.33
2023-02-22T13:59:24.138Z,34.92
2023-02-22T14:04:48.219Z,35.13
2023-02-22T14:09:51.329Z,40.03
2023-02-22T14:15:29.813Z,33.55
2023-02-22T14:20:35.486Z,35.47
2023-02-22T14:25:40.383Z,37.65
2023-02-22T14:31:35.403Z,35.58
2023-02-22T14:36:48.609Z,39.80
2023-02-22T14:41:57.293Z,34.60
2023-02-22T14:47:04.727Z,40.53
2023-02-22T14:52:21.251Z,37.28
2023-02-22T14:57:29.776Z,40.22
2023-02-22T15:02:42.117Z,34.50
2023-02-22T15:07:54.332Z,38.92
2023-02-22T15:12:59.922Z,38.83
2023-02-22T15:18:02.159Z,38.13
2023-02-22T15:23:08.613Z,39.92
2023-02-22T15:28:14.716Z,40.70
2023-02-22T15:33:18.790Z,42.40
2023-02-22T15:38:27.171Z,40.80
2023-02-22T15:54:54.836Z,51.50
2023-02-22T15:59:57.880Z,44.25
2023-02-22T16:05:04.028Z,44.70
2023-02-22T16:10:07.872Z,44.70
2023-02-22T16:15:25.434Z,46.15
2023-02-22T16:21:03.789Z,49.00
2023-02-22T16:26:21.719Z,46.30
2023-02-22T16:37:23.760Z,40.55
2023-02-22T16:42:26.919Z,43.47
2023-02-22T16:47:28.653Z,39.15
2023-02-22T16:52:31.204Z,49.08
2023-02-22T16:57:34.272Z,45.00
2023-02-22T17:02:35.991Z,41.40
2023-02-22T17:07:37.729Z,37.70
2023-02-22T17:18:31.813Z,42.97
2023-02-22T17:23:33.742Z,40.78
2023-02-22T17:34:25.652Z,42.62
2023-02-22T17:39:27.780Z,45.97
2023-02-22T17:44:30.169Z,41.45
2023-02-22T17:49:34.783Z,44.50
2023-02-22T17:54:38.871Z,41.45
2023-02-22T17:59:40.745Z,50.00
2023-02-22T18:04:44.023Z,47.55
2023-02-22T18:09:45.918Z,41.10
2023-02-22T18:14:49.885Z,50.38
2023-02-22T18:19:53.041Z,51.97
2023-02-22T18:24:58.428Z,52.35
2023-02-22T18:30:02.322Z,50.25
2023-02-22T18:35:09.473Z,55.05
2023-02-22T18:40:11.382Z,50.40
2023-02-22T18:45:13.259Z,57.15
2023-02-22T18:50:16.801Z,48.60
2023-02-22T18:55:20.217Z,51.17
2023-02-22T19:00:22.194Z,56.08
2023-02-22T19:05:25.381Z,61.20
2023-02-22T19:10:27.326Z,63.33
2023-02-22T19:15:29.140Z,68.30
2023-02-22T19:20:32.347Z,66.78
2023-02-22T19:25:38.802Z,66.93
2023-02-22T19:30:40.738Z,54.55
2023-02-22T19:35:43.950Z,62.25
2023-02-22T19:40:45.800Z,72.43
2023-02-22T19:45:47.570Z,68.18
2023-02-22T19:50:50.681Z,61.35
2023-02-22T19:56:15.723Z,74.07
2023-02-22T20:01:22.312Z,66.35
2023-02-22T20:06:55.755Z,54.70
2023-02-22T20:11:57.714Z,66.00
2023-02-22T20:16:59.662Z,64.68
2023-02-22T20:22:03.270Z,63.15
2023-02-22T20:27:05.029Z,65.35
2023-02-22T20:32:11.664Z,62.78
2023-02-22T20:37:14.131Z,76.80
2023-02-22T20:42:17.472Z,61.47
2023-02-22T20:47:21.327Z,64.90
2023-02-22T20:53:01.808Z,57.25
2023-02-22T20:58:04.988Z,55.67
2023-02-22T21:03:06.770Z,56.60
2023-02-22T21:08:08.528Z,51.80
2023-02-22T21:13:12.285Z,64.75
2023-02-22T21:18:14.802Z,60.70
2023-02-22T21:23:16.557Z,53.72
2023-02-22T21:28:19.692Z,53.15
2023-02-22T21:33:21.469Z,57.30
2023-02-22T21:38:23.339Z,60.45
2023-02-22T21:43:26.548Z,52.47
2023-02-22T21:48:28.512Z,57.13
2023-02-22T21:53:33.401Z,67.43
2023-02-22T21:58:39.347Z,64.90
2023-02-22T22:03:41.405Z,56.03
2023-02-22T22:08:43.520Z,64.35
2023-02-22T22:13:47.153Z,59.75
2023-02-22T22:24:07.105Z,60.65
2023-02-22T22:29:10.333Z,79.75
2023-02-22T22:34:12.316Z,83.30
2023-02-22T22:39:14.444Z,65.25
2023-02-22T22:49:58.556Z,56.95
2023-02-22T22:55:00.476Z,62.80
2023-02-22T23:00:07.205Z,59.67
2023-02-22T23:05:09.291Z,65.03
2023-02-22T23:10:11.493Z,58.80
2023-02-22T23:15:14.625Z,55.40
2023-02-22T23:20:16.552Z,54.72
2023-02-22T23:25:18.828Z,62.70
2023-02-22T23:30:22.296Z,54.90
2023-02-22T23:35:24.106Z,59.80
2023-02-22T23:40:26.738Z,54.00
2023-02-22T23:45:30.115Z,52.15
2023-02-22T23:50:32.123Z,50.95
2023-02-22T23:55:34.019Z,54.42
